Time;durP1;ratioP1;P1;durP2;ratioP2;P2;SDS_P1;SDS_P2;PMS_P1;PMS_P2;Temp;Humidity;BMP_temperature;BMP_pressure;BME280_temperature;BME280_humidity;BME280_pressure;Samples;Min_cycle;Max_cycle;Signal;HPM_P1;HPM_P2
2021/10/04 00:01:01;;;;;;;10.65;5.03;;;;;;;;;;5027628;28;20029;-76
2021/10/04 00:03:27;;;;;;;8.48;4.90;;;;;;;;;;5033204;28;20507;-76
2021/10/04 00:05:53;;;;;;;10.63;4.90;;;;;;;;;;5033872;28;20427;-75
2021/10/04 00:08:20;;;;;;;6.82;4.72;;;;;;;;;;5031503;28;20047;-76
2021/10/04 00:10:46;;;;;;;6.70;4.43;;;;;;;;;;5037179;28;20040;-76
2021/10/04 00:13:12;;;;;;;5.22;4.28;;;;;;;;;;5022247;28;20164;-75
2021/10/04 00:15:38;;;;;;;6.93;4.60;;;;;;;;;;5027226;28;20091;-75
2021/10/04 00:18:04;;;;;;;6.07;4.57;;;;;;;;;;5033129;28;20024;-76
2021/10/04 00:20:30;;;;;;;7.10;4.22;;;;;;;;;;5016287;28;20029;-76
2021/10/04 00:22:58;;;;;;;9.68;4.25;;;;;;;;;;5027050;28;20030;-76
2021/10/04 00:25:24;;;;;;;6.82;4.50;;;;;;;;;;5031749;28;20026;-77
2021/10/04 00:27:50;;;;;;;7.80;4.13;;;;;;;;;;5030394;28;20038;-77
2021/10/04 00:30:17;;;;;;;11.38;4.28;;;;;;;;;;5028967;28;20031;-76
2021/10/04 00:32:44;;;;;;;6.40;4.13;;;;;;;;;;5026503;28;20072;-76
2021/10/04 00:35:13;;;;;;;6.18;4.50;;;;;;;;;;5032651;28;20504;-77
2021/10/04 00:37:39;;;;;;;5.70;4.40;;;;;;;;;;5032905;28;20143;-77
2021/10/04 00:40:07;;;;;;;8.05;4.35;;;;;;;;;;5039294;28;20033;-77
2021/10/04 00:42:34;;;;;;;5.85;4.60;;;;;;;;;;5035334;28;20049;-76
2021/10/04 00:45:00;;;;;;;10.68;4.80;;;;;;;;;;5030666;28;20037;-75
2021/10/04 00:47:26;;;;;;;9.50;4.90;;;;;;;;;;5026613;28;20045;-75
2021/10/04 00:49:52;;;;;;;6.15;4.57;;;;;;;;;;5032496;28;20025;-77
2021/10/04 00:52:18;;;;;;;8.05;4.90;;;;;;;;;;5033777;28;20384;-77
2021/10/04 00:54:45;;;;;;;8.55;4.40;;;;;;;;;;5028351;28;20397;-76
2021/10/04 00:57:11;;;;;;;8.13;4.80;;;;;;;;;;5030175;28;20030;-76
2021/10/04 00:59:37;;;;;;;6.30;4.97;;;;;;;;;;5033691;28;20021;-76
2021/10/04 01:02:04;;;;;;;6.45;5.00;;;;;;;;;;5027719;28;20533;-76
2021/10/04 01:04:30;;;;;;;9.18;5.13;;;;;;;;;;5036301;28;20121;-76
2021/10/04 01:06:57;;;;;;;8.30;4.90;;;;;;;;;;5032762;28;20517;-75
2021/10/04 01:09:24;;;;;;;7.30;4.75;;;;;;;;;;5037165;28;20508;-77
2021/10/04 01:11:50;;;;;;;8.25;4.43;;;;;;;;;;5031862;28;20033;-77
2021/10/04 01:14:17;;;;;;;6.70;4.45;;;;;;;;;;5032061;28;20039;-75
2021/10/04 01:16:43;;;;;;;8.88;5.05;;;;;;;;;;5031692;28;20032;-76
2021/10/04 01:19:10;;;;;;;8.10;4.53;;;;;;;;;;5027058;28;20029;-77
2021/10/04 01:21:36;;;;;;;9.48;3.95;;;;;;;;;;5032758;28;20244;-76
2021/10/04 01:24:03;;;;;;;5.82;3.97;;;;;;;;;;5015730;28;20093;-77
2021/10/04 01:26:29;;;;;;;5.50;4.30;;;;;;;;;;5027710;28;20037;-76
2021/10/04 01:28:55;;;;;;;7.90;4.20;;;;;;;;;;5039031;28;20089;-76
2021/10/04 01:31:22;;;;;;;8.68;5.03;;;;;;;;;;5030425;28;20405;-76
2021/10/04 01:33:53;;;;;;;7.85;4.63;;;;;;;;;;5031213;28;20045;-76
2021/10/04 01:36:20;;;;;;;7.80;4.22;;;;;;;;;;5036969;28;20037;-76
2021/10/04 01:38:46;;;;;;;5.57;4.22;;;;;;;;;;5034889;28;20048;-76
2021/10/04 01:41:13;;;;;;;6.20;4.20;;;;;;;;;;5031391;28;20074;-76
2021/10/04 01:43:39;;;;;;;7.40;4.32;;;;;;;;;;5034106;28;20154;-76
2021/10/04 01:46:06;;;;;;;5.45;4.05;;;;;;;;;;5032180;28;20473;-77
2021/10/04 01:48:32;;;;;;;8.93;4.38;;;;;;;;;;5029015;28;20670;-76
2021/10/04 01:50:58;;;;;;;7.22;4.28;;;;;;;;;;5028698;28;20395;-77
2021/10/04 01:53:24;;;;;;;4.57;3.53;;;;;;;;;;5035307;28;20036;-76
2021/10/04 01:55:51;;;;;;;11.65;4.15;;;;;;;;;;5030427;28;20033;-77
2021/10/04 01:58:17;;;;;;;5.82;3.53;;;;;;;;;;5026471;28;20031;-77
2021/10/04 02:00:43;;;;;;;10.13;4.45;;;;;;;;;;5029378;28;20029;-77
2021/10/04 02:03:09;;;;;;;6.25;3.78;;;;;;;;;;5029355;28;20051;-76
2021/10/04 02:05:36;;;;;;;7.43;4.32;;;;;;;;;;5029794;28;20040;-77
2021/10/04 02:08:02;;;;;;;5.28;3.78;;;;;;;;;;5033229;28;20124;-76
2021/10/04 02:10:31;;;;;;;5.03;3.53;;;;;;;;;;5029733;28;20758;-77
2021/10/04 02:12:58;;;;;;;8.95;3.85;;;;;;;;;;5018129;28;20095;-77
2021/10/04 02:15:24;;;;;;;7.20;4.40;;;;;;;;;;5031952;28;20474;-76
2021/10/04 02:17:50;;;;;;;5.25;4.10;;;;;;;;;;5028943;28;20409;-77
2021/10/04 02:20:18;;;;;;;14.88;4.53;;;;;;;;;;5024963;28;20025;-76
2021/10/04 02:22:45;;;;;;;6.32;4.45;;;;;;;;;;5032929;28;20617;-78
2021/10/04 02:25:12;;;;;;;8.30;4.32;;;;;;;;;;5013562;28;20477;-77
2021/10/04 02:27:38;;;;;;;7.97;4.57;;;;;;;;;;5027688;28;20044;-77
2021/10/04 02:30:06;;;;;;;5.05;4.20;;;;;;;;;;5032753;28;20068;-77
2021/10/04 02:32:32;;;;;;;6.90;4.28;;;;;;;;;;5025387;28;20116;-77
2021/10/04 02:34:58;;;;;;;6.32;4.05;;;;;;;;;;5031232;28;20030;-77
2021/10/04 02:37:24;;;;;;;7.07;3.70;;;;;;;;;;5033375;28;20044;-77
2021/10/04 02:39:50;;;;;;;5.70;3.88;;;;;;;;;;5027462;28;20076;-77
2021/10/04 02:42:17;;;;;;;5.78;3.47;;;;;;;;;;5020759;28;20056;-77
2021/10/04 02:44:43;;;;;;;8.93;3.65;;;;;;;;;;5031545;28;20029;-78
2021/10/04 02:47:09;;;;;;;6.00;3.75;;;;;;;;;;5037469;28;20090;-77
2021/10/04 02:49:35;;;;;;;5.00;4.03;;;;;;;;;;5032557;28;20029;-77
2021/10/04 02:52:02;;;;;;;5.78;4.00;;;;;;;;;;5025871;28;20068;-77
2021/10/04 02:54:28;;;;;;;5.95;3.72;;;;;;;;;;5016423;28;20030;-77
2021/10/04 02:56:54;;;;;;;3.90;3.28;;;;;;;;;;5029405;28;20025;-77
2021/10/04 02:59:20;;;;;;;5.82;3.80;;;;;;;;;;5029626;28;20093;-77
2021/10/04 03:01:46;;;;;;;5.57;3.40;;;;;;;;;;5038018;28;20806;-77
2021/10/04 03:04:12;;;;;;;5.95;3.35;;;;;;;;;;5029889;28;20127;-77
2021/10/04 03:06:38;;;;;;;6.22;3.97;;;;;;;;;;5025123;28;20367;-77
2021/10/04 03:09:05;;;;;;;5.15;3.45;;;;;;;;;;5030940;28;20057;-77
2021/10/04 03:11:31;;;;;;;3.90;3.50;;;;;;;;;;5028128;28;20035;-77
2021/10/04 03:13:57;;;;;;;8.95;3.78;;;;;;;;;;5029962;28;20039;-77
2021/10/04 03:16:23;;;;;;;6.10;3.40;;;;;;;;;;5012862;28;20056;-77
2021/10/04 03:18:49;;;;;;;8.45;3.85;;;;;;;;;;5025470;28;20170;-77
2021/10/04 03:21:15;;;;;;;6.70;3.72;;;;;;;;;;5030363;28;20094;-78
2021/10/04 03:23:42;;;;;;;9.13;3.50;;;;;;;;;;5026766;28;20116;-77
2021/10/04 03:26:08;;;;;;;5.47;3.08;;;;;;;;;;5025148;28;20034;-77
2021/10/04 03:28:34;;;;;;;6.03;3.42;;;;;;;;;;5034200;28;20033;-78
2021/10/04 03:31:00;;;;;;;5.50;3.47;;;;;;;;;;5026648;28;20029;-77
2021/10/04 03:33:26;;;;;;;6.22;3.30;;;;;;;;;;5025258;28;20032;-77
2021/10/04 03:35:52;;;;;;;3.83;3.42;;;;;;;;;;5030868;28;20143;-77
2021/10/04 03:38:18;;;;;;;7.63;3.58;;;;;;;;;;5013229;28;20029;-77
2021/10/04 03:40:44;;;;;;;6.30;3.72;;;;;;;;;;5029861;28;20035;-76
2021/10/04 03:43:11;;;;;;;7.47;4.18;;;;;;;;;;5030648;28;20049;-77
2021/10/04 03:45:37;;;;;;;4.97;3.33;;;;;;;;;;5016448;28;20033;-77
2021/10/04 03:48:03;;;;;;;5.63;3.63;;;;;;;;;;5032805;28;20628;-77
2021/10/04 03:50:29;;;;;;;5.95;3.88;;;;;;;;;;5028771;28;20475;-78
2021/10/04 03:52:55;;;;;;;5.20;3.53;;;;;;;;;;5033073;28;20029;-77
2021/10/04 03:55:21;;;;;;;5.18;3.47;;;;;;;;;;5025532;28;20474;-78
2021/10/04 03:57:48;;;;;;;6.47;3.80;;;;;;;;;;5024347;28;20047;-78
2021/10/04 04:00:16;;;;;;;5.20;3.63;;;;;;;;;;5031380;28;20036;-78
2021/10/04 04:02:42;;;;;;;5.68;4.25;;;;;;;;;;5024091;28;20060;-77
2021/10/04 04:05:09;;;;;;;5.03;3.78;;;;;;;;;;5024082;28;20025;-78
2021/10/04 04:07:35;;;;;;;5.28;3.65;;;;;;;;;;5026556;28;20116;-78
2021/10/04 04:10:01;;;;;;;7.20;4.00;;;;;;;;;;5030027;28;20017;-78
2021/10/04 04:12:27;;;;;;;10.45;4.60;;;;;;;;;;5031240;28;20112;-78
2021/10/04 04:14:53;;;;;;;5.93;3.97;;;;;;;;;;5029120;28;20087;-78
2021/10/04 04:17:19;;;;;;;4.68;3.92;;;;;;;;;;5022159;28;20114;-77
2021/10/04 04:19:46;;;;;;;4.75;3.58;;;;;;;;;;5027247;28;20041;-77
2021/10/04 04:22:12;;;;;;;6.30;4.13;;;;;;;;;;5026914;28;20064;-77
2021/10/04 04:24:38;;;;;;;5.50;4.10;;;;;;;;;;5018653;28;20034;-77
2021/10/04 04:27:06;;;;;;;7.60;4.40;;;;;;;;;;5029056;28;20037;-77
2021/10/04 04:29:33;;;;;;;9.35;4.40;;;;;;;;;;5023779;28;20029;-77
2021/10/04 04:31:59;;;;;;;5.75;3.80;;;;;;;;;;5023512;28;20032;-77
2021/10/04 04:34:25;;;;;;;6.05;4.03;;;;;;;;;;5031355;28;20025;-76
2021/10/04 04:36:51;;;;;;;7.93;4.50;;;;;;;;;;5028707;28;20033;-76
2021/10/04 04:39:17;;;;;;;6.88;4.50;;;;;;;;;;5030331;28;20029;-77
2021/10/04 04:41:43;;;;;;;4.38;3.90;;;;;;;;;;5011626;28;20183;-76
2021/10/04 04:44:09;;;;;;;6.40;4.07;;;;;;;;;;5025976;28;20064;-76
2021/10/04 04:46:36;;;;;;;6.10;4.60;;;;;;;;;;5022323;28;20048;-77
2021/10/04 04:49:02;;;;;;;6.22;4.72;;;;;;;;;;5029434;28;20561;-76
2021/10/04 04:51:28;;;;;;;7.50;4.32;;;;;;;;;;5028994;28;20301;-76
2021/10/04 04:53:54;;;;;;;6.53;4.05;;;;;;;;;;5025036;28;20466;-73
2021/10/04 04:56:20;;;;;;;7.75;4.70;;;;;;;;;;5027548;28;20695;-74
2021/10/04 04:58:46;;;;;;;10.88;4.20;;;;;;;;;;5026217;28;20037;-74
2021/10/04 05:01:13;;;;;;;5.43;4.10;;;;;;;;;;5021881;28;20528;-75
2021/10/04 05:03:39;;;;;;;5.65;4.30;;;;;;;;;;5030610;28;20071;-74
2021/10/04 05:06:05;;;;;;;5.82;4.25;;;;;;;;;;5007028;28;20026;-74
2021/10/04 05:08:31;;;;;;;7.10;3.97;;;;;;;;;;5026295;28;20624;-75
2021/10/04 05:10:57;;;;;;;7.90;4.32;;;;;;;;;;5026208;28;20025;-74
2021/10/04 05:13:23;;;;;;;5.50;4.40;;;;;;;;;;5028189;28;20025;-74
2021/10/04 05:15:50;;;;;;;5.65;4.25;;;;;;;;;;5005013;28;20105;-74
2021/10/04 05:18:16;;;;;;;5.55;3.70;;;;;;;;;;5026785;28;20022;-75
2021/10/04 05:20:42;;;;;;;8.63;3.90;;;;;;;;;;5027100;28;20094;-74
2021/10/04 05:23:08;;;;;;;5.30;4.18;;;;;;;;;;5022997;28;20662;-71
2021/10/04 05:25:34;;;;;;;9.57;4.20;;;;;;;;;;5031423;28;20164;-70
2021/10/04 05:28:00;;;;;;;8.05;4.57;;;;;;;;;;5010691;28;20041;-75
2021/10/04 05:30:27;;;;;;;6.80;4.03;;;;;;;;;;5022771;28;20386;-75
2021/10/04 05:32:53;;;;;;;6.53;4.18;;;;;;;;;;5035250;28;20021;-74
2021/10/04 05:35:19;;;;;;;7.97;4.65;;;;;;;;;;5029025;28;20025;-74
2021/10/04 05:37:45;;;;;;;7.55;4.30;;;;;;;;;;5028240;28;20037;-75
2021/10/04 05:40:12;;;;;;;7.18;4.38;;;;;;;;;;5034418;28;20032;-75
2021/10/04 05:42:39;;;;;;;8.95;4.70;;;;;;;;;;5031769;28;20076;-75
2021/10/04 05:45:06;;;;;;;8.50;4.63;;;;;;;;;;5030984;28;20053;-74
2021/10/04 05:47:32;;;;;;;5.68;4.65;;;;;;;;;;5036157;28;20033;-74
2021/10/04 05:49:59;;;;;;;6.22;4.35;;;;;;;;;;5036398;28;20036;-75
2021/10/04 05:52:25;;;;;;;8.23;4.20;;;;;;;;;;5037205;28;20105;-75
2021/10/04 05:54:51;;;;;;;7.32;4.57;;;;;;;;;;5018746;28;20618;-75
2021/10/04 05:57:17;;;;;;;6.03;4.72;;;;;;;;;;5036014;28;20020;-75
2021/10/04 05:59:43;;;;;;;9.63;6.13;;;;;;;;;;5033858;28;20052;-75
2021/10/04 06:02:10;;;;;;;6.18;4.63;;;;;;;;;;5035321;28;20021;-75
2021/10/04 06:04:36;;;;;;;8.43;5.30;;;;;;;;;;5033721;28;20026;-75
2021/10/04 06:07:02;;;;;;;8.43;5.30;;;;;;;;;;5036609;28;20086;-75
2021/10/04 06:09:28;;;;;;;7.00;4.50;;;;;;;;;;5035208;28;20083;-75
2021/10/04 06:11:54;;;;;;;7.63;4.25;;;;;;;;;;5033820;28;20040;-75
2021/10/04 06:14:20;;;;;;;4.78;3.78;;;;;;;;;;5036029;28;20476;-74
2021/10/04 06:16:47;;;;;;;6.78;4.53;;;;;;;;;;5031619;28;20104;-75
2021/10/04 06:19:13;;;;;;;7.57;4.30;;;;;;;;;;5036130;28;20028;-74
2021/10/04 06:21:40;;;;;;;7.82;4.00;;;;;;;;;;5034754;28;20023;-76
2021/10/04 06:24:06;;;;;;;6.28;3.72;;;;;;;;;;5033983;28;20021;-75
2021/10/04 06:26:32;;;;;;;6.22;3.50;;;;;;;;;;5033932;28;20353;-75
2021/10/04 06:28:58;;;;;;;5.78;3.63;;;;;;;;;;5034219;28;20040;-75
2021/10/04 06:31:25;;;;;;;4.18;3.63;;;;;;;;;;5039817;28;20025;-74
2021/10/04 06:33:51;;;;;;;7.68;4.45;;;;;;;;;;5034510;28;20156;-75
2021/10/04 06:36:18;;;;;;;4.00;3.58;;;;;;;;;;5031662;28;20029;-75
2021/10/04 06:38:44;;;;;;;6.20;4.28;;;;;;;;;;5035200;28;20119;-74
2021/10/04 06:41:10;;;;;;;6.75;4.55;;;;;;;;;;5034561;28;20033;-74
2021/10/04 06:43:36;;;;;;;7.35;4.80;;;;;;;;;;5032558;28;20663;-74
2021/10/04 06:46:07;;;;;;;9.45;5.00;;;;;;;;;;5034308;28;20519;-76
2021/10/04 06:48:34;;;;;;;8.13;4.75;;;;;;;;;;5033013;28;20037;-74
2021/10/04 06:51:00;;;;;;;8.68;4.45;;;;;;;;;;5032130;28;20033;-74
2021/10/04 06:53:26;;;;;;;7.78;4.97;;;;;;;;;;5029877;28;20030;-74
2021/10/04 06:55:52;;;;;;;8.40;4.90;;;;;;;;;;5032505;28;20067;-75
2021/10/04 06:58:18;;;;;;;7.35;4.80;;;;;;;;;;5035367;28;20025;-75
2021/10/04 07:00:44;;;;;;;8.63;4.68;;;;;;;;;;5031044;28;20035;-75
2021/10/04 07:03:11;;;;;;;5.88;4.28;;;;;;;;;;5034752;28;20025;-74
2021/10/04 07:05:37;;;;;;;11.40;4.68;;;;;;;;;;5033345;28;20644;-75
2021/10/04 07:08:04;;;;;;;6.78;4.40;;;;;;;;;;5033541;28;20033;-73
2021/10/04 07:10:30;;;;;;;9.20;4.68;;;;;;;;;;5034798;28;20090;-74
2021/10/04 07:12:56;;;;;;;10.75;5.35;;;;;;;;;;5030701;28;20496;-76
2021/10/04 07:15:22;;;;;;;11.30;5.45;;;;;;;;;;5019141;28;20565;-74
2021/10/04 07:17:49;;;;;;;11.63;5.28;;;;;;;;;;5034400;28;20156;-75
2021/10/04 07:20:15;;;;;;;6.07;4.50;;;;;;;;;;5015590;28;20022;-73
2021/10/04 07:22:42;;;;;;;6.80;4.50;;;;;;;;;;5032462;28;20098;-75
2021/10/04 07:25:09;;;;;;;11.50;4.57;;;;;;;;;;5033703;28;20725;-77
2021/10/04 07:27:35;;;;;;;7.45;4.63;;;;;;;;;;5031347;28;20036;-77
2021/10/04 07:30:02;;;;;;;6.53;4.90;;;;;;;;;;5034936;28;20088;-75
2021/10/04 07:32:28;;;;;;;10.52;4.70;;;;;;;;;;5032342;28;20025;-75
2021/10/04 07:34:54;;;;;;;6.70;4.47;;;;;;;;;;5013864;28;20029;-74
2021/10/04 07:37:20;;;;;;;4.85;4.10;;;;;;;;;;5015699;28;20056;-75
2021/10/04 07:39:47;;;;;;;6.43;4.50;;;;;;;;;;5034837;28;20114;-73
2021/10/04 07:42:14;;;;;;;5.95;4.40;;;;;;;;;;5035682;28;20057;-75
2021/10/04 07:44:40;;;;;;;6.07;4.10;;;;;;;;;;5036281;28;20474;-74
2021/10/04 07:47:06;;;;;;;5.68;4.05;;;;;;;;;;5035251;28;20029;-75
2021/10/04 07:49:32;;;;;;;5.38;3.95;;;;;;;;;;5035218;28;20017;-76
2021/10/04 07:52:00;;;;;;;5.70;4.13;;;;;;;;;;5035067;28;20025;-74
2021/10/04 07:54:27;;;;;;;4.80;3.92;;;;;;;;;;5035837;28;20304;-74
2021/10/04 07:56:53;;;;;;;5.63;4.25;;;;;;;;;;5033858;28;20021;-77
2021/10/04 07:59:19;;;;;;;7.13;4.45;;;;;;;;;;5017838;28;20107;-75
2021/10/04 08:01:46;;;;;;;6.22;4.18;;;;;;;;;;5037565;28;20087;-75
2021/10/04 08:04:12;;;;;;;6.55;4.22;;;;;;;;;;5036420;28;20025;-77
2021/10/04 08:06:38;;;;;;;6.45;4.32;;;;;;;;;;5039850;28;20032;-75
2021/10/04 08:09:05;;;;;;;5.60;4.38;;;;;;;;;;5032126;28;20040;-75
2021/10/04 08:11:31;;;;;;;6.03;4.20;;;;;;;;;;5035081;28;20119;-75
2021/10/04 08:13:57;;;;;;;6.53;4.10;;;;;;;;;;5032956;28;20033;-75
2021/10/04 08:16:23;;;;;;;6.13;4.68;;;;;;;;;;5032985;28;20021;-76
2021/10/04 08:18:53;;;;;;;7.05;3.95;;;;;;;;;;5033957;28;20025;-75
2021/10/04 08:21:20;;;;;;;6.03;4.38;;;;;;;;;;5034265;28;20397;-74
2021/10/04 08:23:47;;;;;;;6.53;4.47;;;;;;;;;;5034137;28;20017;-76
2021/10/04 08:26:14;;;;;;;9.07;4.70;;;;;;;;;;5016297;28;20017;-77
2021/10/04 08:28:40;;;;;;;5.32;4.15;;;;;;;;;;5031965;28;20454;-76
2021/10/04 08:31:07;;;;;;;6.82;4.45;;;;;;;;;;5034818;28;20100;-75
2021/10/04 08:33:34;;;;;;;6.78;5.13;;;;;;;;;;5035425;28;20485;-78
2021/10/04 08:36:00;;;;;;;7.15;4.88;;;;;;;;;;5031419;28;20013;-74
2021/10/04 08:38:27;;;;;;;6.43;4.57;;;;;;;;;;5034209;28;20028;-74
2021/10/04 08:40:53;;;;;;;6.35;4.07;;;;;;;;;;5026260;28;20116;-75
2021/10/04 08:43:19;;;;;;;8.32;4.47;;;;;;;;;;5032942;28;20064;-75
2021/10/04 08:45:46;;;;;;;10.10;5.00;;;;;;;;;;5027322;28;20041;-75
2021/10/04 08:48:13;;;;;;;6.30;4.57;;;;;;;;;;5029164;28;20662;-74
2021/10/04 08:50:39;;;;;;;5.85;4.82;;;;;;;;;;5028620;28;20030;-76
2021/10/04 08:53:05;;;;;;;5.63;4.13;;;;;;;;;;5033273;28;20021;-75
2021/10/04 08:55:34;;;;;;;5.43;4.25;;;;;;;;;;5027523;28;20537;-74
2021/10/04 08:58:01;;;;;;;7.50;4.75;;;;;;;;;;5025937;28;20648;-74
2021/10/04 09:00:27;;;;;;;10.20;5.30;;;;;;;;;;5030656;28;20029;-75
2021/10/04 09:03:00;;;;;;;5.93;4.47;;;;;;;;;;5032462;28;20025;-75
2021/10/04 09:05:27;;;;;;;7.07;5.45;;;;;;;;;;5029755;28;20090;-77
2021/10/04 09:08:07;;;;;;;6.78;4.68;;;;;;;;;;5027750;28;20040;-78
2021/10/04 09:10:35;;;;;;;8.00;5.10;;;;;;;;;;5011525;28;20410;-76
2021/10/04 09:13:02;;;;;;;7.65;5.20;;;;;;;;;;5029615;28;20077;-76
2021/10/04 09:15:37;;;;;;;6.38;4.80;;;;;;;;;;5032169;28;20035;-76
2021/10/04 09:18:05;;;;;;;5.97;4.65;;;;;;;;;;5015645;28;20381;-75
2021/10/04 09:20:50;;;;;;;5.20;4.70;;;;;;;;;;5032918;28;20043;-75
2021/10/04 09:23:35;;;;;;;8.30;4.47;;;;;;;;;;5032171;28;20060;-76
2021/10/04 09:26:03;;;;;;;8.23;5.03;;;;;;;;;;5017537;28;20422;-76
2021/10/04 09:28:30;;;;;;;5.80;5.07;;;;;;;;;;5033666;28;20055;-75
2021/10/04 09:31:17;;;;;;;6.28;5.00;;;;;;;;;;5034406;28;20048;-75
2021/10/04 09:34:01;;;;;;;7.10;5.13;;;;;;;;;;5018216;28;20116;-75
2021/10/04 09:36:38;;;;;;;15.23;5.60;;;;;;;;;;5017129;28;20036;-75
2021/10/04 09:39:15;;;;;;;9.98;5.22;;;;;;;;;;5033645;28;20025;-76
2021/10/04 09:42:01;;;;;;;9.57;5.32;;;;;;;;;;5034887;28;20062;-75
2021/10/04 09:44:38;;;;;;;8.75;5.10;;;;;;;;;;5014702;28;20045;-78
2021/10/04 09:47:24;;;;;;;6.72;5.35;;;;;;;;;;5031932;28;20028;-76
2021/10/04 09:49:53;;;;;;;8.55;4.85;;;;;;;;;;5031406;28;20514;-75
2021/10/04 09:52:21;;;;;;;8.23;4.90;;;;;;;;;;5033425;28;20485;-76
2021/10/04 09:54:48;;;;;;;9.60;4.72;;;;;;;;;;5032680;28;20101;-75
2021/10/04 09:57:21;;;;;;;8.88;4.90;;;;;;;;;;5033080;28;20036;-76
2021/10/04 09:59:48;;;;;;;5.38;4.82;;;;;;;;;;5028308;28;20028;-75
2021/10/04 10:02:14;;;;;;;8.63;4.80;;;;;;;;;;5028013;28;20057;-76
2021/10/04 10:04:41;;;;;;;6.78;5.20;;;;;;;;;;5030298;28;20041;-76
2021/10/04 10:07:08;;;;;;;7.22;5.07;;;;;;;;;;5024649;28;20407;-76
2021/10/04 10:09:35;;;;;;;9.27;5.03;;;;;;;;;;5031482;28;20033;-76
2021/10/04 10:12:02;;;;;;;6.65;5.50;;;;;;;;;;5027905;28;20034;-75
2021/10/04 10:14:28;;;;;;;8.80;4.97;;;;;;;;;;5030875;28;20029;-75
2021/10/04 10:16:55;;;;;;;5.43;4.93;;;;;;;;;;5013155;28;20500;-75
2021/10/04 10:19:23;;;;;;;7.07;4.32;;;;;;;;;;5035596;28;20031;-76
2021/10/04 10:22:09;;;;;;;6.80;4.93;;;;;;;;;;5028616;28;20021;-76
2021/10/04 10:24:36;;;;;;;6.03;4.45;;;;;;;;;;5036023;28;20049;-76
2021/10/04 10:27:03;;;;;;;6.20;5.00;;;;;;;;;;5035021;28;20449;-75
2021/10/04 10:29:30;;;;;;;6.07;4.60;;;;;;;;;;5033039;28;20017;-76
2021/10/04 10:31:56;;;;;;;5.43;4.82;;;;;;;;;;5034189;28;20032;-76
2021/10/04 10:34:25;;;;;;;5.47;4.90;;;;;;;;;;5031302;28;20045;-73
2021/10/04 10:36:58;;;;;;;4.97;4.45;;;;;;;;;;5033478;28;20021;-84
2021/10/04 10:39:34;;;;;;;6.00;5.40;;;;;;;;;;5036571;28;20104;-72
2021/10/04 10:42:20;;;;;;;8.82;5.20;;;;;;;;;;5035340;28;20041;-77
2021/10/04 10:44:59;;;;;;;5.55;4.65;;;;;;;;;;5037473;28;20040;-74
2021/10/04 10:47:37;;;;;;;9.05;5.68;;;;;;;;;;5039239;28;20039;-81
2021/10/04 10:50:13;;;;;;;9.10;5.25;;;;;;;;;;5020323;28;20639;-73
2021/10/04 10:52:47;;;;;;;7.22;5.13;;;;;;;;;;5035879;28;20033;-73
2021/10/04 10:55:19;;;;;;;6.25;5.60;;;;;;;;;;5036891;28;20029;-75
2021/10/04 10:58:04;;;;;;;7.18;5.50;;;;;;;;;;5034354;28;20033;-77
2021/10/04 11:00:45;;;;;;;9.20;6.07;;;;;;;;;;5039517;28;20072;-76
2021/10/04 11:03:13;;;;;;;9.85;5.47;;;;;;;;;;5035617;28;20243;-80
2021/10/04 11:05:39;;;;;;;8.50;5.55;;;;;;;;;;5036267;28;20104;-73
2021/10/04 11:08:06;;;;;;;6.53;5.53;;;;;;;;;;5034355;28;20061;-73
2021/10/04 11:10:32;;;;;;;7.68;5.20;;;;;;;;;;5038814;28;20051;-76
2021/10/04 11:13:08;;;;;;;6.93;5.20;;;;;;;;;;5033456;28;20029;-74
2021/10/04 11:15:34;;;;;;;5.63;5.03;;;;;;;;;;5035325;28;20064;-75
2021/10/04 11:18:00;;;;;;;10.02;5.43;;;;;;;;;;5034606;28;20017;-72
2021/10/04 11:20:27;;;;;;;6.55;5.10;;;;;;;;;;5014041;28;20033;-72
2021/10/04 11:23:10;;;;;;;6.22;5.40;;;;;;;;;;5034814;28;20025;-73
2021/10/04 11:25:47;;;;;;;7.45;5.10;;;;;;;;;;5032247;28;20459;-73
2021/10/04 11:28:15;;;;;;;5.85;5.25;;;;;;;;;;5033470;28;20571;-72
2021/10/04 11:30:56;;;;;;;7.45;4.97;;;;;;;;;;5031201;28;20492;-75
2021/10/04 11:33:26;;;;;;;7.85;4.97;;;;;;;;;;5031064;28;20024;-72
2021/10/04 11:35:56;;;;;;;5.38;4.50;;;;;;;;;;5035517;28;20021;-73
2021/10/04 11:38:22;;;;;;;5.95;5.03;;;;;;;;;;5030923;28;20378;-73
2021/10/04 11:40:48;;;;;;;6.38;4.80;;;;;;;;;;5032055;28;20492;-72
2021/10/04 11:43:15;;;;;;;5.07;4.47;;;;;;;;;;5035313;28;20110;-72
2021/10/04 11:45:41;;;;;;;5.22;4.72;;;;;;;;;;5031255;28;20068;-82
2021/10/04 11:48:07;;;;;;;6.55;4.57;;;;;;;;;;5021623;28;20040;-72
2021/10/04 11:50:44;;;;;;;13.68;5.30;;;;;;;;;;5030803;28;20128;-75
2021/10/04 11:53:11;;;;;;;5.95;4.93;;;;;;;;;;5034654;28;20052;-72
2021/10/04 11:55:37;;;;;;;6.63;5.03;;;;;;;;;;5029933;28;20030;-75
2021/10/04 11:58:15;;;;;;;6.25;4.65;;;;;;;;;;5039382;28;20147;-79
2021/10/04 12:00:45;;;;;;;10.07;4.70;;;;;;;;;;5029370;28;20056;-81
2021/10/04 12:03:12;;;;;;;6.53;4.45;;;;;;;;;;5030880;28;20667;-76
2021/10/04 12:05:38;;;;;;;5.55;4.55;;;;;;;;;;5033633;28;20029;-72
2021/10/04 12:08:04;;;;;;;7.18;5.28;;;;;;;;;;5030608;28;20045;-74
2021/10/04 12:10:45;;;;;;;5.40;4.55;;;;;;;;;;5033372;28;20096;-73
2021/10/04 12:13:15;;;;;;;6.50;4.68;;;;;;;;;;5030607;28;20040;-72
2021/10/04 12:15:42;;;;;;;6.10;4.80;;;;;;;;;;5034591;28;20795;-72
2021/10/04 12:18:15;;;;;;;5.20;4.70;;;;;;;;;;5032833;28;20033;-76
2021/10/04 12:20:42;;;;;;;6.68;5.25;;;;;;;;;;5033935;28;20067;-72
2021/10/04 12:23:15;;;;;;;7.30;4.93;;;;;;;;;;5033724;28;20052;-74
2021/10/04 12:25:41;;;;;;;5.78;5.13;;;;;;;;;;5032507;28;20029;-74
2021/10/04 12:28:10;;;;;;;5.45;4.32;;;;;;;;;;5033055;28;20041;-78
2021/10/04 12:30:53;;;;;;;42.35;35.15;;;;;;;;;;5033966;28;20071;-75
2021/10/04 12:33:20;;;;;;;47.97;39.33;;;;;;;;;;5030998;28;20948;-73
2021/10/04 12:35:46;;;;;;;17.65;13.52;;;;;;;;;;5029969;28;20037;-72
2021/10/04 12:38:17;;;;;;;11.05;7.05;;;;;;;;;;5034815;28;20017;-81
2021/10/04 12:40:44;;;;;;;17.13;6.22;;;;;;;;;;5029467;28;20481;-72
2021/10/04 12:43:14;;;;;;;7.78;5.80;;;;;;;;;;5033683;28;20517;-72
2021/10/04 12:45:52;;;;;;;6.40;5.28;;;;;;;;;;5031104;28;20021;-76
2021/10/04 12:48:19;;;;;;;7.90;5.95;;;;;;;;;;5016265;28;20037;-71
2021/10/04 12:50:47;;;;;;;7.28;5.90;;;;;;;;;;5026862;28;20021;-71
2021/10/04 12:53:18;;;;;;;7.97;5.38;;;;;;;;;;5036828;28;20025;-75
2021/10/04 12:55:46;;;;;;;7.07;5.65;;;;;;;;;;4999421;28;20479;-72
2021/10/04 12:58:13;;;;;;;7.05;5.30;;;;;;;;;;5030244;28;20392;-73
2021/10/04 13:00:39;;;;;;;7.97;5.47;;;;;;;;;;5031411;28;20036;-71
2021/10/04 13:03:05;;;;;;;6.68;5.40;;;;;;;;;;5029558;28;20503;-71
2021/10/04 13:05:31;;;;;;;12.90;5.63;;;;;;;;;;5027986;28;20029;-71
2021/10/04 13:07:57;;;;;;;6.45;5.78;;;;;;;;;;5034353;28;20098;-76
2021/10/04 13:10:23;;;;;;;7.72;6.18;;;;;;;;;;5031756;28;20564;-71
2021/10/04 13:12:50;;;;;;;9.65;6.05;;;;;;;;;;5030728;28;20111;-75
2021/10/04 13:15:17;;;;;;;7.80;6.78;;;;;;;;;;5031888;28;20025;-82
2021/10/04 13:17:43;;;;;;;9.68;6.53;;;;;;;;;;5032235;28;20112;-71
2021/10/04 13:20:10;;;;;;;8.27;6.38;;;;;;;;;;5034543;28;20037;-72
2021/10/04 13:22:37;;;;;;;6.95;6.25;;;;;;;;;;5031913;28;20049;-71
2021/10/04 13:25:04;;;;;;;8.27;6.50;;;;;;;;;;5031891;28;20043;-72
2021/10/04 13:27:31;;;;;;;9.25;6.72;;;;;;;;;;5036308;28;20116;-73
2021/10/04 13:29:57;;;;;;;10.00;7.38;;;;;;;;;;5033260;28;20179;-77
2021/10/04 13:32:23;;;;;;;9.18;7.10;;;;;;;;;;5034040;28;20029;-72
2021/10/04 13:34:49;;;;;;;9.25;6.78;;;;;;;;;;5031627;28;20034;-72
2021/10/04 13:37:18;;;;;;;8.43;7.53;;;;;;;;;;5027091;28;20109;-76
2021/10/04 13:39:44;;;;;;;10.90;8.00;;;;;;;;;;5035310;28;20083;-79
2021/10/04 13:42:10;;;;;;;7.63;6.93;;;;;;;;;;5033215;28;20049;-75
2021/10/04 13:44:37;;;;;;;9.60;7.50;;;;;;;;;;5028810;28;20592;-72
2021/10/04 13:47:03;;;;;;;8.88;6.93;;;;;;;;;;5030943;28;20041;-75
2021/10/04 13:49:30;;;;;;;9.65;7.10;;;;;;;;;;5031983;28;20105;-75
2021/10/04 13:51:57;;;;;;;9.15;7.32;;;;;;;;;;5037200;28;20040;-79
2021/10/04 13:54:23;;;;;;;8.77;7.53;;;;;;;;;;5034227;28;20056;-72
2021/10/04 13:56:49;;;;;;;12.05;8.27;;;;;;;;;;5036748;28;20029;-75
2021/10/04 13:59:15;;;;;;;10.77;7.68;;;;;;;;;;5039041;28;20109;-71
2021/10/04 14:01:43;;;;;;;8.50;7.00;;;;;;;;;;5037451;28;20033;-75
2021/10/04 14:04:10;;;;;;;9.48;7.60;;;;;;;;;;5034805;28;20111;-75
2021/10/04 14:06:36;;;;;;;9.48;7.03;;;;;;;;;;5035086;28;20127;-72
2021/10/04 14:09:02;;;;;;;9.77;7.30;;;;;;;;;;5037031;28;20037;-77
2021/10/04 14:11:29;;;;;;;8.00;7.18;;;;;;;;;;5035941;28;20112;-75
2021/10/04 14:13:55;;;;;;;9.93;7.97;;;;;;;;;;5041307;28;20065;-72
2021/10/04 14:16:22;;;;;;;8.88;7.43;;;;;;;;;;5041151;28;20029;-72
2021/10/04 14:18:48;;;;;;;9.57;8.15;;;;;;;;;;5031523;28;20401;-72
2021/10/04 14:21:14;;;;;;;8.65;7.57;;;;;;;;;;5033028;28;20026;-73
2021/10/04 14:23:40;;;;;;;8.38;7.45;;;;;;;;;;5035300;28;20033;-73
2021/10/04 14:26:07;;;;;;;7.78;6.95;;;;;;;;;;5041640;28;20025;-73
2021/10/04 14:28:33;;;;;;;9.82;8.55;;;;;;;;;;5036238;28;20042;-76
2021/10/04 14:30:59;;;;;;;10.13;7.90;;;;;;;;;;5037346;28;20021;-79
2021/10/04 14:33:25;;;;;;;8.82;7.97;;;;;;;;;;5034706;28;20026;-72
2021/10/04 14:35:52;;;;;;;8.75;7.82;;;;;;;;;;5017769;28;20520;-72
2021/10/04 14:38:19;;;;;;;10.18;8.07;;;;;;;;;;5036278;28;20119;-76
2021/10/04 14:40:46;;;;;;;8.63;7.80;;;;;;;;;;5033398;28;20090;-72
2021/10/04 14:43:12;;;;;;;9.52;7.80;;;;;;;;;;5029557;28;20033;-82